createdAt,value
2023-04-24T00:02:20.505Z,97486.86
2023-04-24T00:04:52.949Z,97483.98
2023-04-24T00:07:25.543Z,97486.36
2023-04-24T00:09:57.956Z,97481.23
2023-04-24T00:12:30.861Z,97484.20
2023-04-24T00:15:03.210Z,97485.06
2023-04-24T00:17:35.680Z,97482.64
2023-04-24T00:20:11.326Z,97477.73
2023-04-24T00:22:43.474Z,97479.67
2023-04-24T00:25:18.014Z,97476.16
2023-04-24T00:27:53.192Z,97476.15
2023-04-24T00:30:25.365Z,97476.23
2023-04-24T00:32:57.802Z,97471.32
2023-04-24T00:35:30.585Z,97466.82
2023-04-24T00:38:03.290Z,97461.91
2023-04-24T00:40:35.723Z,97456.35
2023-04-24T00:43:09.993Z,97456.18
2023-04-24T00:45:43.022Z,97448.21
2023-04-24T00:48:15.937Z,97446.25
2023-04-24T00:50:49.163Z,97445.33
2023-04-24T00:53:21.845Z,97441.69
2023-04-24T00:55:54.543Z,97438.46
2023-04-24T00:58:27.758Z,97438.16
2023-04-24T01:01:02.238Z,97436.84
2023-04-24T01:03:38.614Z,97434.55
2023-04-24T01:06:12.709Z,97436.11
2023-04-24T01:08:48.259Z,97433.17
2023-04-24T01:11:23.306Z,97428.31
2023-04-24T01:13:55.554Z,97425.43
2023-04-24T01:16:28.533Z,97425.10
2023-04-24T01:19:01.055Z,97419.91
2023-04-24T01:21:37.808Z,97420.71
2023-04-24T01:24:10.716Z,97418.45
2023-04-24T01:26:45.692Z,97418.66
2023-04-24T01:29:18.680Z,97412.38
2023-04-24T01:31:51.232Z,97416.05
2023-04-24T01:34:23.505Z,97412.29
2023-04-24T01:36:58.478Z,97409.49
2023-04-24T01:39:31.396Z,97405.79
2023-04-24T01:42:03.901Z,97406.38
2023-04-24T01:44:37.282Z,97401.21
2023-04-24T01:53:14.118Z,97391.17
2023-04-24T01:55:46.454Z,97390.67
2023-04-24T01:58:19.446Z,97386.52
2023-04-24T02:00:52.042Z,97382.44
2023-04-24T02:03:27.497Z,97384.46
2023-04-24T02:06:00.688Z,97379.69
2023-04-24T02:08:32.862Z,97382.29
2023-04-24T02:11:05.340Z,97378.21
2023-04-24T02:13:39.108Z,97379.45
2023-04-24T02:16:12.145Z,97375.83
2023-04-24T02:18:44.433Z,97374.52
2023-04-24T02:21:19.227Z,97369.07
2023-04-24T02:23:53.946Z,97374.46
2023-04-24T02:26:26.323Z,97371.17
2023-04-24T02:28:58.489Z,97367.94
2023-04-24T02:31:30.695Z,97367.63
2023-04-24T02:34:03.266Z,97363.34
2023-04-24T02:36:35.406Z,97365.67
2023-04-24T02:39:07.745Z,97361.66
2023-04-24T02:41:39.932Z,97363.48
2023-04-24T02:44:12.818Z,97364.33
2023-04-24T02:46:45.856Z,97364.65
2023-04-24T02:49:18.026Z,97365.00
2023-04-24T02:51:50.559Z,97367.20
2023-04-24T02:54:23.100Z,97363.11
2023-04-24T02:56:55.347Z,97362.45
2023-04-24T02:59:28.317Z,97361.92
2023-04-24T03:02:01.215Z,97361.02
2023-04-24T03:04:33.719Z,97361.98
2023-04-24T03:07:06.758Z,97359.58
2023-04-24T03:09:39.006Z,97361.54
2023-04-24T03:12:11.279Z,97360.48
2023-04-24T03:14:45.942Z,97360.17
2023-04-24T03:17:19.013Z,97360.57
2023-04-24T03:19:52.259Z,97359.02
2023-04-24T03:22:27.137Z,97361.79
2023-04-24T03:24:59.806Z,97354.99
2023-04-24T03:27:33.827Z,97353.31
2023-04-24T03:30:10.044Z,97353.09
2023-04-24T03:32:48.915Z,97353.84
2023-04-24T03:35:25.095Z,97352.61
2023-04-24T03:37:57.379Z,97351.43
2023-04-24T03:40:55.849Z,97351.40
2023-04-24T03:43:57.814Z,97348.42
2023-04-24T03:46:30.772Z,97352.23
2023-04-24T03:49:04.676Z,97351.75
2023-04-24T03:54:46.304Z,97353.13
2023-04-24T03:57:19.169Z,97356.86
2023-04-24T04:00:03.763Z,97355.52
2023-04-24T04:02:46.915Z,97356.17
2023-04-24T04:05:19.479Z,97354.92
2023-04-24T04:07:51.584Z,97354.72
2023-04-24T04:10:24.273Z,97358.05
2023-04-24T04:12:56.465Z,97356.58
2023-04-24T04:15:28.753Z,97354.02
2023-04-24T04:18:01.754Z,97352.52
2023-04-24T04:20:34.609Z,97354.41
2023-04-24T04:23:06.804Z,97348.67
2023-04-24T04:25:56.176Z,97351.59
2023-04-24T04:28:39.096Z,97352.84
2023-04-24T04:31:11.603Z,97353.79
2023-04-24T04:33:43.822Z,97346.61
2023-04-24T04:36:16.108Z,97345.62
2023-04-24T04:38:50.304Z,97348.48
2023-04-24T04:41:45.344Z,97350.67
2023-04-24T04:44:17.875Z,97352.48
2023-04-24T04:46:50.264Z,97350.52
2023-04-24T04:49:29.424Z,97350.15
2023-04-24T04:52:02.012Z,97349.97
2023-04-24T04:54:34.415Z,97351.25
2023-04-24T04:57:07.353Z,97354.10
2023-04-24T04:59:39.770Z,97358.23
2023-04-24T05:02:15.573Z,97357.65
2023-04-24T05:04:48.939Z,97354.88
2023-04-24T05:07:21.496Z,97352.36
2023-04-24T05:09:54.913Z,97349.56
2023-04-24T05:12:27.135Z,97348.92
2023-04-24T05:14:59.513Z,97350.68
2023-04-24T05:17:32.378Z,97347.89
2023-04-24T05:20:06.432Z,97345.84
2023-04-24T05:22:39.130Z,97346.52
2023-04-24T05:25:13.592Z,97342.55
2023-04-24T05:27:51.782Z,97331.41
2023-04-24T05:30:23.966Z,97328.60
2023-04-24T05:32:56.252Z,97311.23
2023-04-24T05:35:28.324Z,97308.84
2023-04-24T05:38:00.627Z,97306.80
2023-04-24T05:40:32.676Z,97311.27
2023-04-24T05:43:05.040Z,97307.40
2023-04-24T05:45:37.800Z,97290.08
2023-04-24T05:48:10.253Z,97290.59
2023-04-24T05:50:43.491Z,97287.96
2023-04-24T05:53:19.123Z,97280.89
2023-04-24T05:55:51.458Z,97286.09
2023-04-24T05:58:24.620Z,97287.45
2023-04-24T06:00:57.065Z,97275.67
2023-04-24T06:03:29.671Z,97246.66
2023-04-24T06:06:01.925Z,97252.73
2023-04-24T06:08:34.204Z,97253.71
2023-04-24T06:11:07.033Z,97258.51
2023-04-24T06:13:39.377Z,97251.60
2023-04-24T06:16:37.693Z,97231.95
2023-04-24T06:19:18.801Z,97231.01
2023-04-24T06:21:51.319Z,97237.61
2023-04-24T06:24:23.480Z,97235.61
2023-04-24T06:26:58.374Z,97217.55
2023-04-24T06:29:30.727Z,97207.92
2023-04-24T06:32:02.864Z,97191.73
2023-04-24T06:34:35.224Z,97183.48
2023-04-24T06:37:07.902Z,97175.96
2023-04-24T06:39:40.582Z,97165.41
2023-04-24T06:42:13.199Z,97141.02
2023-04-24T06:44:46.087Z,97140.98
2023-04-24T06:47:18.130Z,97153.56
2023-04-24T06:49:53.700Z,97147.03
2023-04-24T06:52:28.966Z,97118.14
2023-04-24T06:55:06.052Z,97128.77
2023-04-24T06:57:39.034Z,97106.33
2023-04-24T07:00:16.629Z,97092.33
2023-04-24T07:02:53.891Z,97087.45
2023-04-24T07:05:30.417Z,97084.30
2023-04-24T07:08:03.039Z,97090.66
2023-04-24T07:10:38.163Z,97075.35
2023-04-24T07:13:12.677Z,97067.05
2023-04-24T07:15:45.020Z,97063.34
2023-04-24T07:18:17.287Z,97060.48
2023-04-24T07:20:51.218Z,97061.44
2023-04-24T07:23:23.978Z,97051.42
2023-04-24T07:29:29.542Z,97045.21
2023-04-24T07:32:03.915Z,97049.84
2023-04-24T07:34:36.564Z,97032.96
2023-04-24T07:37:08.864Z,97018.33
2023-04-24T07:39:43.838Z,97002.11
2023-04-24T07:42:19.086Z,97001.33
2023-04-24T07:44:53.568Z,96984.09
2023-04-24T07:47:26.184Z,96988.14
2023-04-24T07:49:58.728Z,96972.95
2023-04-24T07:52:34.049Z,96956.07
2023-04-24T07:55:08.160Z,96950.73
2023-04-24T07:57:43.364Z,96951.70
2023-04-24T08:00:19.541Z,96950.64
2023-04-24T08:02:52.061Z,96929.08
2023-04-24T08:05:29.872Z,96917.09
2023-04-24T08:08:02.630Z,96927.83
2023-04-24T08:10:39.066Z,96921.80
2023-04-24T08:13:12.579Z,96917.41
2023-04-24T08:15:45.033Z,96924.58
2023-04-24T08:18:17.302Z,96932.33
2023-04-24T08:20:51.692Z,96923.17
2023-04-24T08:23:25.088Z,96914.61
2023-04-24T08:25:59.819Z,96923.53
2023-04-24T08:28:34.081Z,96917.88
2023-04-24T08:31:07.401Z,96892.02
2023-04-24T08:33:42.042Z,96894.66
2023-04-24T08:36:16.997Z,96881.92
2023-04-24T08:38:52.600Z,96894.54
2023-04-24T08:41:27.885Z,96913.05
2023-04-24T08:44:01.113Z,96896.88
2023-04-24T08:46:35.342Z,96891.05
2023-04-24T08:49:09.215Z,96902.08
2023-04-24T08:51:43.936Z,96908.20
2023-04-24T08:54:20.401Z,96910.73
2023-04-24T08:57:02.970Z,96905.20
2023-04-24T08:59:37.651Z,96927.39
2023-04-24T09:02:15.186Z,96933.05
2023-04-24T09:04:50.404Z,96938.33
2023-04-24T09:07:25.221Z,96940.70
2023-04-24T09:10:02.410Z,96947.95
2023-04-24T09:12:39.129Z,96945.08
2023-04-24T09:15:13.805Z,96938.30
2023-04-24T09:17:46.305Z,96941.67
2023-04-24T09:20:18.714Z,96940.89
2023-04-24T09:22:55.826Z,96932.66
2023-04-24T09:25:35.264Z,96941.20
2023-04-24T09:28:08.352Z,96945.61
2023-04-24T09:30:40.616Z,96941.34
2023-04-24T09:33:17.403Z,96936.48
2023-04-24T09:35:54.220Z,96922.05
2023-04-24T09:38:35.146Z,96911.73
2023-04-24T09:41:09.914Z,96926.09
2023-04-24T09:43:42.169Z,96929.80
2023-04-24T09:46:20.922Z,96916.02
2023-04-24T09:48:53.294Z,96919.67
2023-04-24T09:51:40.914Z,96921.84
2023-04-24T09:54:22.295Z,96923.73
2023-04-24T09:56:57.314Z,96937.98
2023-04-24T09:59:37.471Z,96939.67
2023-04-24T10:02:24.140Z,96926.02
2023-04-24T10:05:07.587Z,96923.52
2023-04-24T10:07:41.449Z,96914.57
2023-04-24T10:10:24.667Z,96916.73
2023-04-24T10:12:57.734Z,96921.61
2023-04-24T10:15:30.118Z,96927.91
2023-04-24T10:18:04.350Z,96929.13
2023-04-24T10:20:39.968Z,96920.58
2023-04-24T10:23:15.337Z,96914.52
2023-04-24T10:25:48.133Z,96913.54
2023-04-24T10:28:24.248Z,96911.80
2023-04-24T10:30:59.604Z,96917.23
2023-04-24T10:33:34.986Z,96925.82
2023-04-24T10:36:09.357Z,96917.62
2023-04-24T10:38:45.469Z,96917.43
2023-04-24T10:41:24.458Z,96916.84
2023-04-24T10:44:14.527Z,96915.40
2023-04-24T10:46:50.873Z,96897.86
2023-04-24T10:49:35.338Z,96907.31
2023-04-24T10:52:09.955Z,96904.66
2023-04-24T10:54:48.844Z,96891.73
2023-04-24T10:57:36.330Z,96890.33
2023-04-24T11:00:24.126Z,96887.98
2023-04-24T11:02:56.683Z,96891.60
2023-04-24T11:05:56.499Z,96892.14
2023-04-24T11:08:31.509Z,96896.95
2023-04-24T11:11:15.846Z,96892.44
2023-04-24T11:14:05.686Z,96893.75
2023-04-24T11:16:42.054Z,96892.09
2023-04-24T11:19:25.064Z,96890.35
2023-04-24T11:22:06.006Z,96889.77
2023-04-24T11:24:52.058Z,96889.91
2023-04-24T11:27:27.385Z,96895.20
2023-04-24T11:30:06.137Z,96901.44
2023-04-24T11:32:41.260Z,96892.45
2023-04-24T11:35:18.623Z,96898.91
2023-04-24T11:38:13.074Z,96898.23
2023-04-24T11:40:50.774Z,96887.70
2023-04-24T11:43:24.459Z,96886.36
2023-04-24T11:45:58.518Z,96887.62
2023-04-24T11:48:33.969Z,96886.30
2023-04-24T12:04:48.122Z,96870.88
2023-04-24T12:07:24.362Z,96865.09
2023-04-24T12:10:06.942Z,96860.69
2023-04-24T12:12:42.858Z,96862.42
2023-04-24T12:15:18.225Z,96869.52
2023-04-24T12:17:52.872Z,96868.96
2023-04-24T12:20:30.723Z,96872.38
2023-04-24T12:23:03.964Z,96870.37
2023-04-24T12:25:36.816Z,96865.90
2023-04-24T12:28:15.253Z,96856.31
2023-04-24T12:34:00.869Z,96852.70
2023-04-24T12:36:34.917Z,96847.33
2023-04-24T12:39:19.572Z,96846.68
2023-04-24T12:42:03.296Z,96847.21
2023-04-24T12:44:39.690Z,96848.02
2023-04-24T12:47:13.440Z,96858.77
2023-04-24T12:49:46.473Z,96871.09
2023-04-24T12:52:22.743Z,96879.69
2023-04-24T12:54:57.246Z,96897.27
2023-04-24T12:57:31.129Z,96910.02
2023-04-24T13:00:03.961Z,96924.39
2023-04-24T13:02:40.164Z,96941.60
2023-04-24T13:05:15.405Z,96948.03
